Time;durP1;ratioP1;P1;durP2;ratioP2;P2;SDS_P1;SDS_P2;PMS_P1;PMS_P2;Temp;Humidity;BMP_temperature;BMP_pressure;BME280_temperature;BME280_humidity;BME280_pressure;Samples;Min_cycle;Max_cycle;Signal;HPM_P1;HPM_P2
2022/06/15 00:00:31;;;;;;;4.10;3.47;;;;;;;13.07;64.58;100483.09;10381037;28;20454;-70
2022/06/15 00:05:33;;;;;;;5.35;3.03;;;;;;;12.90;64.91;100480.16;10381671;28;20069;-70
2022/06/15 00:10:35;;;;;;;4.80;2.65;;;;;;;13.01;63.28;100485.91;10362253;28;20431;-70
2022/06/15 00:15:36;;;;;;;4.35;2.83;;;;;;;12.93;63.80;100480.06;10378166;28;20038;-70
2022/06/15 00:20:39;;;;;;;6.57;3.25;;;;;;;12.60;65.40;100480.28;10362706;28;20415;-69
2022/06/15 00:25:40;;;;;;;5.97;3.60;;;;;;;12.46;66.08;100477.22;10380293;28;20392;-70
2022/06/15 00:30:45;;;;;;;6.25;4.10;;;;;;;12.61;65.30;100479.34;10379134;28;20120;-69
2022/06/15 00:35:57;;;;;;;6.57;3.80;;;;;;;12.48;66.23;100471.91;10378130;28;20132;-69
2022/06/15 00:41:00;;;;;;;5.85;4.38;;;;;;;12.33;66.42;100474.13;10378880;28;20450;-70
2022/06/15 00:46:17;;;;;;;9.48;4.85;;;;;;;12.66;64.86;100466.03;10393366;28;20042;-70
2022/06/15 00:51:19;;;;;;;6.40;4.43;;;;;;;12.49;65.13;100469.22;10380905;28;20399;-69
2022/06/15 00:56:24;;;;;;;6.60;4.13;;;;;;;12.40;65.92;100469.53;10359776;28;20069;-70
2022/06/15 01:01:26;;;;;;;5.15;4.65;;;;;;;12.29;66.51;100467.22;10359776;28;20053;-70
2022/06/15 01:06:46;;;;;;;4.50;3.40;;;;;;;11.93;66.97;100465.75;10359832;28;20069;-70
2022/06/15 01:12:07;;;;;;;4.25;2.85;;;;;;;12.14;65.36;100458.97;10362600;28;20048;-69
2022/06/15 01:17:30;;;;;;;7.28;2.85;;;;;;;12.01;65.77;100463.75;10360815;28;20476;-70
2022/06/15 01:22:50;;;;;;;7.90;5.75;;;;;;;12.01;65.15;100459.34;10359660;28;20042;-69
2022/06/15 01:28:20;;;;;;;8.45;6.38;;;;;;;11.85;66.02;100460.69;10357617;28;20148;-69
2022/06/15 01:33:30;;;;;;;8.07;6.35;;;;;;;11.74;66.73;100463.63;10359777;28;20060;-71
2022/06/15 01:38:54;;;;;;;12.45;8.02;;;;;;;11.55;68.12;100467.69;10358780;28;20055;-71
2022/06/15 01:43:58;;;;;;;9.98;7.72;;;;;;;11.49;68.02;100460.84;10376731;28;20507;-71
2022/06/15 01:49:03;;;;;;;10.95;8.40;;;;;;;11.47;68.27;100462.66;10376384;28;20062;-71
2022/06/15 01:54:10;;;;;;;9.60;7.43;;;;;;;11.92;66.81;100456.97;10359158;28;20061;-70
2022/06/15 01:59:21;;;;;;;;;;;;;;;11.47;68.57;100453.91;10377281;28;20041;-70
2022/06/15 02:04:33;;;;;;;10.18;9.15;;;;;;;11.63;68.03;100445.50;10359382;28;19963;-71
2022/06/15 02:09:56;;;;;;;11.85;10.50;;;;;;;11.54;67.60;100445.78;10358017;28;20129;-70
2022/06/15 02:14:59;;;;;;;12.10;10.55;;;;;;;11.40;68.11;100440.06;10378090;28;20053;-70
2022/06/15 02:20:30;;;;;;;13.70;9.65;;;;;;;11.35;67.97;100447.22;10359268;28;20042;-71
2022/06/15 02:25:36;;;;;;;13.23;11.82;;;;;;;11.10;69.34;100444.41;10375931;28;20492;-70
2022/06/15 02:30:42;;;;;;;10.43;9.38;;;;;;;10.95;69.86;100440.44;10359080;28;20061;-69
2022/06/15 02:35:44;;;;;;;11.98;10.18;;;;;;;11.03;69.70;100433.19;10358502;28;20100;-70
2022/06/15 02:40:51;;;;;;;11.55;8.95;;;;;;;11.28;68.81;100425.47;10367925;28;20104;-70
2022/06/15 02:45:58;;;;;;;11.48;8.88;;;;;;;11.22;69.01;100424.78;10366023;28;20097;-69
2022/06/15 02:51:17;;;;;;;9.35;8.00;;;;;;;11.07;69.32;100419.06;10366106;28;20076;-69
2022/06/15 02:56:27;;;;;;;7.20;5.47;;;;;;;11.01;69.52;100416.56;10364698;28;20042;-69
2022/06/15 03:01:29;;;;;;;5.45;4.95;;;;;;;10.87;70.16;100416.09;10398343;28;20050;-71
2022/06/15 03:06:31;;;;;;;7.97;5.32;;;;;;;10.58;70.54;100425.63;10364081;28;20050;-70
2022/06/15 03:11:42;;;;;;;6.97;5.93;;;;;;;10.90;69.67;100423.06;10364088;28;20137;-69
2022/06/15 03:16:51;;;;;;;7.78;3.80;;;;;;;11.01;68.56;100424.47;10381893;28;20038;-70
2022/06/15 03:21:55;;;;;;;5.00;4.47;;;;;;;10.69;70.71;100432.34;10365897;28;20045;-69
2022/06/15 03:26:57;;;;;;;6.88;4.07;;;;;;;10.58;70.94;100427.34;10381738;28;20518;-69
2022/06/15 03:32:00;;;;;;;4.47;3.38;;;;;;;10.65;70.42;100428.94;10348046;28;20136;-70
2022/06/15 03:37:06;;;;;;;3.70;3.28;;;;;;;10.77;69.81;100431.25;10363467;28;20049;-71
2022/06/15 03:42:14;;;;;;;7.90;3.63;;;;;;;10.68;70.19;100426.25;10382259;28;20397;-71
2022/06/15 03:47:17;;;;;;;4.68;3.90;;;;;;;10.65;70.76;100423.69;10362572;28;20053;-70
2022/06/15 03:52:23;;;;;;;6.00;3.20;;;;;;;11.17;68.36;100416.16;10361880;28;20137;-70
2022/06/15 03:57:26;;;;;;;6.15;3.92;;;;;;;10.97;69.84;100425.44;10363622;28;20054;-70
2022/06/15 04:02:30;;;;;;;4.93;3.13;;;;;;;10.82;69.86;100417.97;10363572;28;20057;-70
2022/06/15 04:12:55;;;;;;;3.40;2.53;;;;;;;11.03;69.75;100401.63;10363604;28;20046;-70
2022/06/15 04:17:57;;;;;;;2.85;2.08;;;;;;;11.19;69.45;100404.66;10363328;28;20042;-70
2022/06/15 04:23:11;;;;;;;4.80;2.40;;;;;;;11.65;67.49;100400.72;10363751;28;20054;-70
2022/06/15 04:28:15;;;;;;;3.85;2.60;;;;;;;11.65;67.76;100402.47;10366021;28;20050;-70
2022/06/15 04:33:20;;;;;;;4.38;2.30;;;;;;;11.75;66.98;100406.56;10362520;28;20054;-70
2022/06/15 04:38:22;;;;;;;3.38;1.83;;;;;;;12.07;65.19;100416.97;10362909;28;20050;-70
2022/06/15 04:43:30;;;;;;;2.97;1.98;;;;;;;12.50;63.98;100422.63;10362605;28;20050;-70
2022/06/15 04:48:32;;;;;;;3.72;2.30;;;;;;;12.52;63.91;100423.44;10363078;28;20052;-70
2022/06/15 04:53:35;;;;;;;2.45;2.00;;;;;;;12.54;64.04;100418.97;10361214;28;20479;-70
2022/06/15 04:58:39;;;;;;;5.10;2.13;;;;;;;12.78;62.45;100422.53;10377819;28;20511;-70
2022/06/15 05:03:42;;;;;;;5.38;1.92;;;;;;;12.97;62.08;100409.56;10361695;28;20578;-70
2022/06/15 05:08:44;;;;;;;3.88;1.60;;;;;;;13.79;59.38;100411.78;10361758;28;20100;-70
2022/06/15 05:13:46;;;;;;;3.75;1.52;;;;;;;13.76;59.33;100414.53;10363766;28;20057;-70
2022/06/15 05:18:48;;;;;;;4.72;1.50;;;;;;;14.39;58.01;100406.75;10362122;28;20052;-70
2022/06/15 05:23:54;;;;;;;2.40;1.50;;;;;;;15.07;56.13;100405.59;10360297;28;20046;-69
2022/06/15 05:29:18;;;;;;;4.03;1.60;;;;;;;15.93;52.90;100396.34;10360774;28;20066;-69
2022/06/15 05:34:25;;;;;;;4.45;1.60;;;;;;;16.38;51.41;100395.91;10361732;28;20045;-69
2022/06/15 05:39:27;;;;;;;3.25;1.50;;;;;;;16.84;50.56;100395.41;10359551;28;20070;-68
2022/06/15 05:50:06;;;;;;;2.40;1.00;;;;;;;17.77;48.68;100397.50;10252706;29;20484;-69
2022/06/15 05:55:44;;;;;;;3.88;1.27;;;;;;;17.88;48.99;100398.63;10253412;29;20051;-69
2022/06/15 06:00:45;;;;;;;2.75;1.30;;;;;;;18.01;47.30;100388.13;10250978;29;20429;-70
2022/06/15 06:05:47;;;;;;;2.25;1.20;;;;;;;18.22;47.45;100385.19;10250554;29;20059;-70
2022/06/15 06:10:49;;;;;;;3.88;1.33;;;;;;;18.59;46.95;100390.09;10250591;28;20058;-70
2022/06/15 06:15:52;;;;;;;3.28;1.55;;;;;;;18.53;46.96;100393.09;10244374;29;20055;-69
2022/06/15 06:20:54;;;;;;;3.53;1.10;;;;;;;18.38;47.99;100399.34;10259453;29;20134;-69
2022/06/15 06:25:55;;;;;;;5.63;1.00;;;;;;;19.54;44.71;100396.75;10362684;28;20064;-69
2022/06/15 06:31:00;;;;;;;3.22;1.10;;;;;;;20.20;44.43;100395.22;10367288;28;20056;-70
2022/06/15 06:36:06;;;;;;;6.55;1.55;;;;;;;20.48;42.44;100392.44;10385735;28;20096;-70
2022/06/15 06:41:09;;;;;;;10.50;1.50;;;;;;;20.23;44.18;100390.53;10386892;28;20042;-70
2022/06/15 06:46:11;;;;;;;5.97;1.92;;;;;;;20.63;43.98;100386.06;10384608;28;20066;-70
2022/06/15 06:51:14;;;;;;;10.48;1.55;;;;;;;21.36;42.75;100385.47;10384067;28;20050;-70
2022/06/15 06:56:17;;;;;;;10.88;2.10;;;;;;;21.16;42.36;100394.88;10386764;28;20081;-70
2022/06/15 07:01:19;;;;;;;4.50;1.40;;;;;;;21.82;41.20;100389.31;10385348;28;20081;-69
2022/06/15 07:06:20;;;;;;;3.25;1.10;;;;;;;22.31;39.76;100388.38;10382735;28;20042;-70
2022/06/15 07:11:22;;;;;;;2.80;1.00;;;;;;;21.92;40.83;100387.69;10380861;28;20125;-69
2022/06/15 07:16:24;;;;;;;3.53;1.17;;;;;;;22.01;40.25;100381.66;10382801;28;20045;-70
2022/06/15 07:21:27;;;;;;;3.53;1.20;;;;;;;22.52;39.66;100369.84;10384646;28;20073;-72
2022/06/15 07:26:33;;;;;;;4.53;1.10;;;;;;;22.80;39.24;100372.13;10380145;28;20041;-70
2022/06/15 07:31:38;;;;;;;5.88;1.63;;;;;;;23.00;38.65;100367.91;10380709;28;20053;-70
2022/06/15 07:36:48;;;;;;;7.63;1.35;;;;;;;23.12;38.95;100364.28;10380190;28;20479;-70
2022/06/15 07:41:50;;;;;;;3.58;1.20;;;;;;;23.82;38.21;100365.84;10380519;28;20050;-71
2022/06/15 07:52:13;;;;;;;4.30;1.40;;;;;;;24.47;35.35;100355.97;10361470;28;20419;-71
2022/06/15 07:57:15;;;;;;;3.38;1.20;;;;;;;24.34;35.77;100352.56;10380564;28;20045;-71
2022/06/15 08:02:18;;;;;;;2.17;1.02;;;;;;;25.07;35.26;100345.47;10380998;28;20048;-70
2022/06/15 08:07:20;;;;;;;4.43;1.13;;;;;;;24.86;34.94;100340.94;10382833;28;20100;-70
2022/06/15 08:12:23;;;;;;;2.17;1.10;;;;;;;24.76;34.90;100340.06;10379577;28;20050;-70
2022/06/15 08:17:28;;;;;;;1.85;1.00;;;;;;;25.40;33.50;100339.81;10379270;28;20539;-70
2022/06/15 08:22:31;;;;;;;2.72;0.95;;;;;;;25.44;32.72;100332.31;10361762;28;20149;-70
2022/06/15 08:27:33;;;;;;;2.58;0.80;;;;;;;25.45;32.20;100322.41;10381664;28;20158;-69
2022/06/15 08:32:35;;;;;;;2.97;0.95;;;;;;;25.84;31.89;100310.75;10379908;28;20052;-70
2022/06/15 08:37:36;;;;;;;1.85;1.10;;;;;;;26.03;30.81;100301.84;10379371;28;20042;-70
2022/06/15 08:42:50;;;;;;;1.50;0.70;;;;;;;26.47;29.86;100301.41;10378739;28;20042;-70
2022/06/15 08:48:15;;;;;;;2.25;0.68;;;;;;;26.94;30.75;100287.94;10379733;28;20041;-70
2022/06/15 08:53:30;;;;;;;3.28;0.63;;;;;;;26.64;28.81;100282.63;10381314;28;20054;-69
2022/06/15 08:58:42;;;;;;;2.53;0.80;;;;;;;27.17;29.78;100292.81;10380372;28;20389;-69
2022/06/15 09:04:00;;;;;;;2.15;0.75;;;;;;;27.25;29.49;100288.53;10378853;28;20125;-69
2022/06/15 09:09:23;;;;;;;2.03;0.60;;;;;;;27.97;28.59;100289.50;10377481;28;20045;-70
2022/06/15 09:14:37;;;;;;;1.63;0.80;;;;;;;27.52;29.68;100290.38;10379354;28;20048;-70
2022/06/15 09:19:46;;;;;;;4.25;0.85;;;;;;;27.55;29.96;100280.13;10377034;28;20041;-68
2022/06/15 09:25:06;;;;;;;3.10;0.90;;;;;;;28.06;27.65;100289.44;10359431;28;20042;-70
2022/06/15 09:30:31;;;;;;;4.00;1.00;;;;;;;28.14;28.09;100281.41;10376800;28;20042;-70
2022/06/15 09:35:41;;;;;;;3.42;1.00;;;;;;;28.57;27.40;100268.91;10377745;28;20073;-68
2022/06/15 09:40:54;;;;;;;2.92;0.82;;;;;;;29.19;27.72;100265.22;10376372;28;21764;-68
2022/06/15 09:46:08;;;;;;;3.17;0.70;;;;;;;29.95;25.97;100256.94;10371983;28;20050;-69
2022/06/15 09:51:19;;;;;;;1.95;0.70;;;;;;;28.86;27.89;100257.75;10377480;28;20076;-69
2022/06/15 09:56:22;;;;;;;1.90;0.70;;;;;;;28.80;27.42;100265.66;10378846;28;20056;-69
2022/06/15 10:01:41;;;;;;;2.92;0.57;;;;;;;28.56;27.71;100261.81;10375471;28;20042;-69
2022/06/15 10:07:13;;;;;;;7.50;0.77;;;;;;;29.35;28.37;100249.00;10375463;28;20065;-69
2022/06/15 10:17:57;;;;;;;2.42;0.90;;;;;;;29.85;26.79;100245.41;10497329;28;20044;-67
2022/06/15 10:23:03;;;;;;;2.63;1.02;;;;;;;29.20;27.69;100246.09;10498137;28;20048;-67
2022/06/15 10:28:15;;;;;;;4.22;0.88;;;;;;;29.05;28.67;100237.75;10479231;28;20045;-67
2022/06/15 10:33:19;;;;;;;3.40;0.90;;;;;;;29.91;27.99;100240.16;10497232;28;20063;-68
2022/06/15 10:38:21;;;;;;;2.40;0.80;;;;;;;29.84;25.82;100233.75;10497732;28;20044;-69
2022/06/15 10:43:32;;;;;;;2.38;0.80;;;;;;;29.99;27.13;100238.47;10497319;28;20553;-66
2022/06/15 10:48:41;;;;;;;2.58;0.90;;;;;;;30.60;25.31;100229.78;10496960;28;20213;-66
2022/06/15 10:54:11;;;;;;;3.38;0.70;;;;;;;30.52;25.27;100224.38;10496501;28;20045;-67
2022/06/15 11:05:33;;;;;;;2.55;0.85;;;;;;;30.81;26.78;100218.41;10503757;28;20050;-67
2022/06/15 11:10:38;;;;;;;2.20;0.60;;;;;;;30.97;26.17;100209.31;10416856;28;20104;-67
2022/06/15 11:21:13;;;;;;;2.33;0.90;;;;;;;29.84;27.27;100197.66;10416820;28;20042;-67
2022/06/15 11:31:47;;;;;;;3.25;0.80;;;;;;;30.10;26.37;100201.00;10418231;28;20052;-68
2022/06/15 11:36:57;;;;;;;3.20;1.00;;;;;;;29.81;27.29;100201.53;10416555;28;20119;-69
2022/06/15 11:42:00;;;;;;;2.05;0.60;;;;;;;29.79;26.13;100192.72;10438041;28;20402;-68
2022/06/15 11:47:41;;;;;;;1.85;0.70;;;;;;;29.72;27.42;100193.59;10503751;28;20047;-68
2022/06/15 11:53:01;;;;;;;1.15;0.60;;;;;;;29.80;25.87;100189.03;10502680;28;20044;-68
2022/06/15 11:58:33;;;;;;;1.50;0.75;;;;;;;29.53;26.29;100192.00;10503338;28;20068;-68
2022/06/15 12:04:11;;;;;;;1.80;0.80;;;;;;;30.09;26.03;100182.22;10484004;28;20044;-67
2022/06/15 12:09:51;;;;;;;1.85;0.70;;;;;;;29.81;25.96;100182.59;10499979;28;20074;-67
2022/06/15 12:15:12;;;;;;;2.40;0.77;;;;;;;30.38;25.26;100179.84;10503217;28;20058;-67
2022/06/15 12:20:24;;;;;;;3.72;0.75;;;;;;;30.38;25.31;100168.13;10501819;28;20055;-67
2022/06/15 12:25:42;;;;;;;3.28;0.80;;;;;;;30.24;25.65;100166.13;10483999;28;20455;-67
2022/06/15 12:30:57;;;;;;;2.50;0.82;;;;;;;30.69;25.57;100165.50;10500927;28;20545;-68
2022/06/15 12:36:21;;;;;;;1.95;0.80;;;;;;;31.08;24.55;100153.81;10500717;28;20068;-68
2022/06/15 12:42:14;;;;;;;2.17;0.80;;;;;;;31.14;26.20;100153.91;10483809;28;20045;-68
2022/06/15 12:46:56;;;;;;;1.33;0.77;;;;;;;30.31;26.46;100148.16;10491914;28;20056;-68
2022/06/15 12:52:32;;;;;;;3.28;0.90;;;;;;;29.81;25.01;100147.34;10500951;28;20505;-68
2022/06/15 12:58:04;;;;;;;2.13;0.75;;;;;;;30.04;26.45;100136.66;10481940;28;20051;-68
2022/06/15 13:03:41;;;;;;;2.85;0.77;;;;;;;29.85;25.33;100137.88;10499776;28;20466;-68
2022/06/15 13:08:46;;;;;;;3.15;0.70;;;;;;;30.22;26.39;100135.63;10480563;28;20140;-68
2022/06/15 13:13:53;;;;;;;1.58;0.57;;;;;;;29.68;27.10;100138.91;10499146;28;20041;-68
2022/06/15 13:18:56;;;;;;;3.25;0.80;;;;;;;29.98;26.14;100133.78;10480748;28;20044;-67
2022/06/15 13:24:08;;;;;;;1.50;0.60;;;;;;;29.99;25.43;100127.34;10498616;28;20494;-67
2022/06/15 13:29:09;;;;;;;2.15;0.85;;;;;;;30.14;25.47;100115.66;10498550;28;20036;-67
2022/06/15 13:34:37;;;;;;;3.67;0.98;;;;;;;30.04;27.12;100119.53;10497306;28;20135;-67
2022/06/15 13:39:42;;;;;;;3.97;0.80;;;;;;;29.92;26.60;100122.59;10497583;28;20044;-67
2022/06/15 13:45:05;;;;;;;4.10;0.80;;;;;;;29.72;27.50;100123.16;10498080;28;20044;-67
2022/06/15 13:50:12;;;;;;;3.15;0.65;;;;;;;29.49;26.41;100120.25;10498583;28;20068;-68
2022/06/15 13:55:39;;;;;;;1.60;0.77;;;;;;;29.17;27.89;100124.59;10496474;28;20094;-66
2022/06/15 14:01:05;;;;;;;3.92;0.70;;;;;;;29.50;27.06;100114.66;10498439;28;20290;-67
2022/06/15 14:06:21;;;;;;;2.50;0.75;;;;;;;29.49;26.70;100104.84;10498694;28;20055;-67
2022/06/15 14:11:55;;;;;;;3.72;0.93;;;;;;;29.25;27.42;100107.53;10497804;28;20040;-67
2022/06/15 14:17:24;;;;;;;4.10;0.80;;;;;;;30.31;25.66;100091.19;10497226;28;20049;-68
2022/06/15 14:22:26;;;;;;;2.97;0.90;;;;;;;29.87;27.18;100088.91;10496349;28;20067;-67
2022/06/15 14:27:31;;;;;;;1.65;0.73;;;;;;;30.49;25.56;100078.25;10473231;28;20047;-66
2022/06/15 14:32:41;;;;;;;2.83;0.75;;;;;;;30.14;25.91;100074.13;10488271;28;20502;-68
2022/06/15 14:37:43;;;;;;;2.65;0.82;;;;;;;30.31;27.03;100064.94;10464087;28;20036;-67
2022/06/15 14:42:57;;;;;;;2.60;1.10;;;;;;;30.46;26.58;100065.06;10486402;28;20045;-68
2022/06/15 14:48:02;;;;;;;2.47;0.90;;;;;;;29.98;26.81;100071.47;10505048;28;20486;-67
2022/06/15 14:53:15;;;;;;;2.38;0.90;;;;;;;29.99;25.91;100057.72;10504756;28;20409;-66
2022/06/15 14:58:21;;;;;;;1.25;0.60;;;;;;;30.12;26.44;100054.47;10504639;28;20043;-68
2022/06/15 15:03:24;;;;;;;;;;;;;;;29.98;25.64;100056.03;10504273;28;20059;-67
2022/06/15 15:08:37;;;;;;;4.28;1.20;;;;;;;30.46;27.14;100047.91;10504606;28;19920;-67
2022/06/15 15:14:04;;;;;;;2.08;0.60;;;;;;;29.80;27.33;100042.72;10504101;28;20049;-67
2022/06/15 15:19:11;;;;;;;3.40;0.95;;;;;;;29.79;27.64;100043.69;10503477;28;20036;-67
2022/06/15 15:24:13;;;;;;;2.83;0.95;;;;;;;30.12;26.44;100033.63;10503656;28;20051;-67
2022/06/15 15:35:07;;;;;;;3.10;0.90;;;;;;;30.62;26.01;100031.56;10502761;28;20040;-68
2022/06/15 15:40:13;;;;;;;1.23;0.63;;;;;;;30.45;26.12;100022.66;10503594;28;20041;-67
2022/06/15 15:45:19;;;;;;;1.08;0.70;;;;;;;31.00;25.50;100018.97;10501973;28;20048;-68
2022/06/15 15:50:21;;;;;;;3.08;0.88;;;;;;;30.69;25.87;100024.41;10503073;28;20123;-67
2022/06/15 15:55:23;;;;;;;3.05;1.15;;;;;;;30.37;26.81;100018.13;10502120;28;20489;-67
2022/06/15 16:00:50;;;;;;;1.92;1.00;;;;;;;30.78;26.53;100015.22;10501895;28;20048;-68
2022/06/15 16:05:52;;;;;;;1.98;0.90;;;;;;;30.84;25.93;100017.19;10497876;28;20409;-68
2022/06/15 16:10:54;;;;;;;1.98;0.93;;;;;;;30.09;26.82;100001.44;10497715;28;20050;-67
2022/06/15 16:15:58;;;;;;;2.00;0.80;;;;;;;30.01;26.97;99998.75;10521003;22;20119;-78
2022/06/15 16:21:00;;;;;;;1.17;0.70;;;;;;;29.61;27.71;100003.28;10621301;28;20036;-79
2022/06/15 16:26:04;;;;;;;1.95;0.80;;;;;;;29.27;28.05;100008.06;10619065;28;20063;-78
2022/06/15 16:31:08;;;;;;;2.88;0.98;;;;;;;28.74;28.76;100003.94;10620486;28;20044;-80
2022/06/15 16:36:10;;;;;;;;;;;;;;;28.24;29.08;100002.91;10636299;28;20062;-78
2022/06/15 16:41:13;;;;;;;2.72;0.90;;;;;;;28.30;28.94;100002.25;10633243;28;19920;-78
2022/06/15 16:46:20;;;;;;;3.08;1.00;;;;;;;28.40;30.13;100004.84;10619330;28;20053;-79
2022/06/15 16:51:25;;;;;;;3.03;1.05;;;;;;;28.20;29.93;99996.16;10618807;28;20027;-78
2022/06/15 16:56:31;;;;;;;2.58;0.90;;;;;;;27.96;30.08;99987.94;10634809;28;20122;-77
2022/06/15 17:01:33;;;;;;;1.70;1.00;;;;;;;27.50;30.95;99990.00;10634811;28;20055;-79
2022/06/15 17:06:37;;;;;;;2.22;1.02;;;;;;;27.22;30.37;99990.13;10636825;28;20020;-79
2022/06/15 17:11:48;;;;;;;1.98;0.93;;;;;;;27.01;30.92;99985.06;10619356;28;20107;-79
2022/06/15 17:16:50;;;;;;;3.08;1.10;;;;;;;26.74;31.98;99985.13;10636725;28;20035;-80
2022/06/15 17:21:52;;;;;;;2.20;1.00;;;;;;;26.68;31.46;99975.81;10618467;28;20034;-79
2022/06/15 17:27:15;;;;;;;4.25;1.00;;;;;;;26.60;31.72;99979.25;10636419;27;20036;-79
2022/06/15 17:32:16;;;;;;;2.53;0.82;;;;;;;26.42;32.08;99981.06;10634929;28;20055;-78
2022/06/15 17:37:19;;;;;;;10.07;1.35;;;;;;;26.36;32.24;99979.00;10617948;28;20095;-79
2022/06/15 17:42:21;;;;;;;2.88;1.20;;;;;;;26.48;31.88;99980.50;10627353;28;20040;-78
2022/06/15 17:47:23;;;;;;;1.95;1.10;;;;;;;26.19;32.61;99979.78;10627705;28;20096;-78
2022/06/15 17:52:24;;;;;;;1.17;0.90;;;;;;;26.01;32.62;99972.50;10621548;28;20100;-79
2022/06/15 17:57:26;;;;;;;2.88;1.15;;;;;;;25.76;33.43;99981.22;10622314;28;20086;-79
2022/06/15 18:02:28;;;;;;;3.20;1.33;;;;;;;25.91;32.83;99987.88;10624514;28;20051;-80
2022/06/15 18:07:30;;;;;;;2.40;2.20;;;;;;;25.70;33.85;99979.13;10620529;28;20044;-79
2022/06/15 18:12:32;;;;;;;2.05;1.48;;;;;;;25.32;34.10;99981.81;10634604;28;20047;-79
2022/06/15 18:17:34;;;;;;;2.35;1.60;;;;;;;25.20;34.66;99982.09;10634792;28;20031;-79
2022/06/15 18:22:36;;;;;;;1.98;1.65;;;;;;;25.15;34.60;99982.53;10617349;28;20047;-79
2022/06/15 18:27:42;;;;;;;2.78;1.25;;;;;;;24.99;35.32;99984.91;10634493;28;20028;-80
2022/06/15 18:32:51;;;;;;;2.42;1.10;;;;;;;24.85;35.37;99987.03;10634690;28;20035;-80
2022/06/15 18:37:53;;;;;;;3.00;0.90;;;;;;;24.62;36.13;99983.78;10617260;28;20044;-81
2022/06/15 18:42:54;;;;;;;1.85;1.40;;;;;;;24.58;37.01;99987.72;10617007;28;20019;-81
2022/06/15 18:47:56;;;;;;;1.55;1.20;;;;;;;24.70;37.14;99988.44;10634251;28;20039;-81
2022/06/15 18:53:03;;;;;;;2.72;1.20;;;;;;;24.41;37.85;99994.63;10634088;28;20024;-79
2022/06/15 18:58:07;;;;;;;2.28;1.33;;;;;;;24.24;38.61;99991.72;10616369;28;20032;-80
2022/06/15 19:03:10;;;;;;;1.83;1.30;;;;;;;24.02;39.30;99992.78;10615416;28;20073;-79
2022/06/15 19:08:16;;;;;;;2.00;1.60;;;;;;;24.09;39.64;99994.81;10615637;28;20035;-78
2022/06/15 19:13:18;;;;;;;2.13;1.27;;;;;;;23.76;40.45;100001.28;10629596;28;20070;-79
2022/06/15 19:18:20;;;;;;;2.88;1.70;;;;;;;23.50;41.51;99998.16;10630497;28;20043;-79
2022/06/15 19:23:23;;;;;;;2.38;1.40;;;;;;;23.29;41.78;100003.53;10640421;28;20079;-79
2022/06/15 19:28:27;;;;;;;2.00;1.52;;;;;;;23.30;41.60;100002.56;10623193;28;20038;-80
2022/06/15 19:33:29;;;;;;;3.03;1.50;;;;;;;23.12;42.59;100012.16;10640729;28;20024;-80
2022/06/15 19:38:30;;;;;;;1.73;1.30;;;;;;;22.95;42.83;100010.91;10622851;28;20051;-81
2022/06/15 19:43:37;;;;;;;3.20;1.58;;;;;;;22.72;43.11;100007.44;10640445;28;20020;-81
2022/06/15 19:48:39;;;;;;;3.10;1.70;;;;;;;22.42;43.62;100016.16;10640099;28;20028;-80
2022/06/15 19:53:40;;;;;;;2.55;1.30;;;;;;;22.30;43.92;100020.66;10622229;28;20051;-80
2022/06/15 19:58:42;;;;;;;3.45;1.73;;;;;;;21.99;45.04;100016.03;10622185;28;20031;-80
2022/06/15 20:03:43;;;;;;;2.47;1.30;;;;;;;21.79;45.27;100021.16;10639594;28;20065;-80
2022/06/15 20:08:45;;;;;;;2.85;1.38;;;;;;;21.78;44.91;100027.47;10639304;28;20035;-81
2022/06/15 20:13:47;;;;;;;1.60;1.23;;;;;;;22.09;44.51;100020.53;10621426;28;20048;-81
2022/06/15 20:18:49;;;;;;;2.65;1.33;;;;;;;21.76;44.83;100023.22;10638844;28;20059;-82
2022/06/15 20:23:53;;;;;;;2.28;1.70;;;;;;;21.40;46.12;100023.28;10638816;28;20087;-80
2022/06/15 20:28:58;;;;;;;3.80;1.67;;;;;;;21.16;47.04;100031.31;10638406;28;20034;-79
2022/06/15 20:34:01;;;;;;;3.10;1.52;;;;;;;21.16;46.24;100028.66;10637558;28;20039;-79
2022/06/15 20:39:04;;;;;;;1.77;1.63;;;;;;;21.13;45.85;100026.19;10638094;28;20031;-79
2022/06/15 20:44:08;;;;;;;1.88;1.67;;;;;;;20.83;47.16;100029.34;10638274;28;20045;-79
2022/06/15 20:49:20;;;;;;;4.47;1.70;;;;;;;20.79;47.04;100027.03;10620498;28;20031;-80
2022/06/15 20:54:22;;;;;;;3.50;1.60;;;;;;;20.81;46.25;100030.44;10637888;28;20131;-79
2022/06/15 20:59:27;;;;;;;2.92;1.60;;;;;;;20.61;46.61;100034.56;10637441;28;20039;-80
2022/06/15 21:04:31;;;;;;;3.55;1.65;;;;;;;20.34;48.09;100038.25;10637310;28;20011;-79
2022/06/15 21:09:39;;;;;;;2.35;1.55;;;;;;;20.09;48.89;100039.16;10637067;28;20067;-79
2022/06/15 21:20:14;;;;;;;3.33;2.58;;;;;;;20.11;50.23;100044.41;10636385;28;20051;-79
2022/06/15 21:25:19;;;;;;;4.40;1.75;;;;;;;20.30;49.35;100041.25;10619121;28;20035;-80
2022/06/15 21:30:23;;;;;;;3.88;1.50;;;;;;;20.39;47.47;100037.94;10618783;28;20055;-80
2022/06/15 21:35:24;;;;;;;1.92;1.50;;;;;;;20.15;47.47;100032.56;10636196;28;20065;-80
2022/06/15 21:40:26;;;;;;;3.67;1.73;;;;;;;19.89;49.10;100031.72;10618608;28;20058;-80
2022/06/15 21:45:37;;;;;;;3.30;1.75;;;;;;;19.49;50.17;100020.28;10635728;28;20023;-80
2022/06/15 21:50:46;;;;;;;3.20;1.67;;;;;;;19.31;50.80;100023.25;10635816;28;20076;-81
2022/06/15 21:55:48;;;;;;;2.90;1.70;;;;;;;19.31;51.19;100022.41;10618127;28;20039;-81
2022/06/15 22:00:49;;;;;;;2.22;1.88;;;;;;;19.17;51.71;100018.00;10635557;28;20110;-81
2022/06/15 22:05:51;;;;;;;2.38;1.70;;;;;;;19.19;51.46;100033.88;10617731;28;20034;-81
2022/06/15 22:10:53;;;;;;;4.03;1.92;;;;;;;19.16;51.52;100035.78;10617856;28;20027;-80
2022/06/15 22:21:25;;;;;;;2.63;2.20;;;;;;;18.93;52.96;100025.81;10377327;28;20054;-82
2022/06/15 22:26:28;;;;;;;3.75;2.15;;;;;;;19.27;52.51;100015.56;10356905;28;20041;-82
2022/06/15 22:31:29;;;;;;;2.47;2.10;;;;;;;18.87;53.87;100012.94;10366994;28;20097;-82
2022/06/15 22:36:31;;;;;;;2.83;1.90;;;;;;;18.63;54.93;100013.53;10381126;28;20082;-82
2022/06/15 22:41:33;;;;;;;2.80;2.20;;;;;;;18.56;54.92;100022.91;10397214;28;20083;-82
2022/06/15 22:46:35;;;;;;;3.20;2.47;;;;;;;18.45;55.81;100009.41;10364590;28;20570;-82
2022/06/15 22:51:37;;;;;;;3.58;2.53;;;;;;;18.49;55.67;100010.06;10368951;28;20053;-81
2022/06/15 22:56:39;;;;;;;3.47;2.65;;;;;;;18.38;56.47;100013.44;10370876;28;20518;-81
2022/06/15 23:01:41;;;;;;;6.45;2.72;;;;;;;18.58;56.20;99998.81;10355736;28;20107;-83
2022/06/15 23:06:42;;;;;;;3.03;2.55;;;;;;;18.25;57.27;99999.22;10388116;28;20041;-82
2022/06/15 23:11:44;;;;;;;4.28;2.75;;;;;;;18.40;57.27;99992.88;10357031;28;20503;-84
2022/06/15 23:16:46;;;;;;;3.65;1.92;;;;;;;18.18;57.73;99998.75;10390848;28;20042;-82
2022/06/15 23:21:48;;;;;;;3.35;2.45;;;;;;;18.14;57.77;99995.41;10376677;28;20088;-82
2022/06/15 23:26:54;;;;;;;5.45;2.72;;;;;;;18.33;57.26;100002.25;10411709;28;20072;-81
2022/06/15 23:31:56;;;;;;;3.08;2.72;;;;;;;17.89;58.46;100001.44;10382873;28;20046;-82
2022/06/15 23:36:57;;;;;;;3.13;2.30;;;;;;;17.87;58.79;99989.19;10371219;28;20384;-83
2022/06/15 23:42:02;;;;;;;3.58;2.80;;;;;;;17.76;59.60;99991.69;10370999;28;20412;-82
2022/06/15 23:47:25;;;;;;;5.38;3.33;;;;;;;17.93;58.89;99994.13;10370017;28;20491;-82
2022/06/15 23:52:28;;;;;;;3.83;3.40;;;;;;;17.82;59.17;99981.50;10369558;28;20046;-82
2022/06/15 23:57:29;;;;;;;5.45;4.45;;;;;;;17.93;58.89;99975.53;10368830;28;20056;-82
